Time;durP1;ratioP1;P1;durP2;ratioP2;P2;SDS_P1;SDS_P2;PMS_P1;PMS_P2;Temp;Humidity;BMP_temperature;BMP_pressure;BME280_temperature;BME280_humidity;BME280_pressure;Samples;Min_cycle;Max_cycle;Signal;HPM_P1;HPM_P2
2023/03/28 00:00:44;;;;;;;0.10;0.10;;;;;;;4.82;79.89;101106.56;6158134;23;20014;-74
2023/03/28 00:03:13;;;;;;;0.00;0.00;;;;;;;4.88;79.77;101106.56;6187456;23;20008;-75
2023/03/28 00:05:39;;;;;;;0.00;0.00;;;;;;;4.94;79.27;101115.72;6185195;23;20019;-74
2023/03/28 00:08:05;;;;;;;0.03;0.03;;;;;;;5.02;79.04;101109.22;6212510;23;20011;-74
2023/03/28 00:10:31;;;;;;;0.00;0.00;;;;;;;5.04;79.45;101099.84;6187484;23;20008;-75
2023/03/28 00:12:56;;;;;;;0.00;0.00;;;;;;;5.03;79.31;101092.75;6238186;23;20079;-76
2023/03/28 00:15:22;;;;;;;0.00;0.00;;;;;;;5.11;78.62;101090.84;6213480;23;20438;-75
2023/03/28 00:17:48;;;;;;;0.00;0.00;;;;;;;5.08;79.04;101075.84;6213359;23;20004;-75
2023/03/28 00:20:14;;;;;;;0.00;0.00;;;;;;;5.14;79.25;101080.44;6162235;23;20008;-76
2023/03/28 00:22:43;;;;;;;0.00;0.00;;;;;;;5.12;78.78;101070.84;6192000;23;20008;-76
2023/03/28 00:25:08;;;;;;;0.00;0.00;;;;;;;5.14;79.50;101068.75;6186466;23;20099;-75
2023/03/28 00:27:34;;;;;;;0.00;0.00;;;;;;;5.17;79.05;101065.59;6240802;23;20039;-75
2023/03/28 00:30:01;;;;;;;0.00;0.00;;;;;;;5.15;79.29;101062.28;6211651;23;20393;-76
2023/03/28 00:32:27;;;;;;;0.00;0.00;;;;;;;5.18;78.82;101061.84;6213396;23;20004;-76
2023/03/28 00:34:52;;;;;;;0.00;0.00;;;;;;;5.22;80.31;101054.94;6185424;23;20040;-75
2023/03/28 00:37:18;;;;;;;0.00;0.00;;;;;;;5.24;79.95;101034.72;6211358;23;20004;-74
2023/03/28 00:39:50;;;;;;;0.00;0.00;;;;;;;5.18;79.79;101029.31;6163036;23;20008;-75
2023/03/28 00:42:21;;;;;;;0.00;0.00;;;;;;;5.18;79.79;101030.16;6234125;23;20365;-74
2023/03/28 00:44:48;;;;;;;0.10;0.10;;;;;;;5.19;80.27;101028.28;6241631;23;20012;-75
2023/03/28 00:47:48;;;;;;;0.00;0.00;;;;;;;5.18;80.37;101030.16;6210187;23;20000;-74
2023/03/28 00:50:26;;;;;;;0.10;0.10;;;;;;;5.21;79.55;101024.31;6212152;23;20411;-75
2023/03/28 00:53:07;;;;;;;0.00;0.00;;;;;;;5.22;79.51;101025.13;6215306;23;20008;-75
2023/03/28 00:55:43;;;;;;;0.00;0.00;;;;;;;5.23;80.32;101015.94;6209581;23;20362;-75
2023/03/28 00:58:13;;;;;;;0.00;0.00;;;;;;;5.18;80.21;101007.63;6215008;23;19996;-75
2023/03/28 01:00:45;;;;;;;0.00;0.00;;;;;;;5.23;80.12;101015.94;6209243;23;20027;-75
2023/03/28 01:03:12;;;;;;;0.00;0.00;;;;;;;5.18;80.80;101008.47;6216703;23;20633;-75
2023/03/28 01:05:39;;;;;;;0.00;0.00;;;;;;;5.18;80.27;101013.03;6188371;23;20054;-75
2023/03/28 01:08:27;;;;;;;0.00;0.00;;;;;;;5.19;80.50;101014.72;6242361;23;20024;-75
2023/03/28 01:10:53;;;;;;;0.00;0.00;;;;;;;5.20;80.64;101010.97;6211115;23;20343;-76
2023/03/28 01:13:23;;;;;;;0.10;0.10;;;;;;;5.17;81.07;100995.09;6240750;23;20395;-76
2023/03/28 01:15:50;;;;;;;0.00;0.00;;;;;;;5.20;81.13;100997.41;6216926;23;20000;-74
2023/03/28 01:18:17;;;;;;;0.00;0.00;;;;;;;5.18;81.20;100983.22;6187460;23;20046;-76
2023/03/28 01:21:09;;;;;;;0.00;0.00;;;;;;;5.22;81.35;100993.41;6215617;23;20011;-75
2023/03/28 01:23:55;;;;;;;0.10;0.10;;;;;;;5.26;81.26;100991.09;6212041;23;20000;-76
2023/03/28 01:26:31;;;;;;;0.00;0.00;;;;;;;5.24;81.42;100985.91;6215032;23;20050;-75
2023/03/28 01:29:11;;;;;;;0.00;0.00;;;;;;;5.29;80.88;100982.53;6215449;23;20043;-76
2023/03/28 01:31:52;;;;;;;0.05;0.05;;;;;;;5.29;80.88;100982.53;6210308;23;19996;-75
2023/03/28 01:34:44;;;;;;;0.00;0.00;;;;;;;5.29;82.29;100977.09;6214491;23;20461;-74
2023/03/28 01:37:36;;;;;;;0.00;0.00;;;;;;;5.32;81.33;100970.44;6211331;23;20427;-75
2023/03/28 01:40:31;;;;;;;0.00;0.00;;;;;;;5.40;81.85;100968.28;6210491;23;20014;-75
2023/03/28 01:43:02;;;;;;;0.00;0.00;;;;;;;5.45;81.06;100961.34;6241737;23;20370;-75
2023/03/28 01:45:49;;;;;;;0.00;0.00;;;;;;;5.42;81.32;100952.63;6208908;23;20004;-76
2023/03/28 01:48:29;;;;;;;0.10;0.10;;;;;;;5.53;81.50;100961.09;6240167;23;20042;-76
2023/03/28 01:51:09;;;;;;;0.00;0.00;;;;;;;5.52;82.06;100951.28;6213205;23;20377;-74
2023/03/28 01:53:43;;;;;;;0.00;0.00;;;;;;;5.56;82.04;100955.22;6237431;23;20399;-74
2023/03/28 01:56:25;;;;;;;0.00;0.00;;;;;;;5.58;81.62;100947.72;6240349;23;20069;-75
2023/03/28 01:59:02;;;;;;;0.00;0.00;;;;;;;5.58;81.62;100942.28;6210875;23;20008;-76
2023/03/28 02:01:38;;;;;;;0.00;0.00;;;;;;;5.62;81.12;100938.06;6215308;23;20028;-74
2023/03/28 02:04:10;;;;;;;0.00;0.00;;;;;;;5.66;80.91;100938.47;6209381;23;20001;-76
2023/03/28 02:06:38;;;;;;;0.00;0.00;;;;;;;5.72;80.98;100937.59;6214269;23;20082;-75
2023/03/28 02:09:06;;;;;;;0.08;0.08;;;;;;;5.69;80.68;100928.00;6210496;23;20419;-73
2023/03/28 02:11:33;;;;;;;0.00;0.00;;;;;;;5.73;80.84;100929.22;6211917;23;20070;-74
2023/03/28 02:14:12;;;;;;;0.10;0.10;;;;;;;5.72;81.44;100924.88;6211900;23;20373;-76
2023/03/28 02:16:40;;;;;;;0.00;0.00;;;;;;;5.72;81.35;100905.88;6208101;23;20030;-76
2023/03/28 02:19:07;;;;;;;0.10;0.10;;;;;;;5.83;81.23;100909.72;6212219;23;20010;-74
2023/03/28 02:21:44;;;;;;;0.00;0.00;;;;;;;5.82;80.70;100894.47;6208592;23;20338;-75
2023/03/28 02:24:11;;;;;;;0.00;0.00;;;;;;;5.90;81.78;100896.94;6234883;23;20004;-75
2023/03/28 02:26:37;;;;;;;0.10;0.10;;;;;;;5.92;80.97;100888.56;6209149;23;20012;-75
2023/03/28 02:29:05;;;;;;;0.00;0.00;;;;;;;5.93;80.84;100882.09;6212556;23;20478;-75
2023/03/28 02:31:31;;;;;;;0.00;0.00;;;;;;;5.91;80.54;100876.03;6209096;23;20087;-75
2023/03/28 02:33:58;;;;;;;0.00;0.00;;;;;;;5.95;81.41;100882.69;6212466;23;20020;-75
2023/03/28 02:36:55;;;;;;;0.03;0.03;;;;;;;5.97;81.23;100872.44;6240359;23;20011;-75
2023/03/28 02:39:43;;;;;;;0.00;0.00;;;;;;;5.95;81.13;100860.97;6216096;23;20015;-76
2023/03/28 02:42:14;;;;;;;0.00;0.00;;;;;;;6.01;80.82;100849.22;6206536;23;20007;-75
2023/03/28 02:45:07;;;;;;;0.00;0.00;;;;;;;6.05;80.77;100834.16;6213716;23;20007;-76
2023/03/28 02:47:42;;;;;;;0.10;0.10;;;;;;;6.07;80.63;100826.59;6215869;23;20035;-76
2023/03/28 02:50:24;;;;;;;0.00;0.00;;;;;;;6.09;80.40;100829.94;6212004;23;20031;-76
2023/03/28 02:53:31;;;;;;;0.00;0.00;;;;;;;6.02;80.37;100815.59;6239061;23;20388;-74
2023/03/28 02:56:08;;;;;;;0.10;0.10;;;;;;;6.08;81.41;100817.41;6137280;23;20003;-75
2023/03/28 02:58:53;;;;;;;0.00;0.00;;;;;;;6.07;81.34;100810.31;6213202;23;20008;-75
2023/03/28 03:01:19;;;;;;;0.05;0.05;;;;;;;6.12;81.08;100812.38;6209265;23;20637;-75
2023/03/28 03:03:47;;;;;;;0.00;0.00;;;;;;;6.15;80.60;100819.19;6213283;23;20015;-75
2023/03/28 03:06:12;;;;;;;0.10;0.10;;;;;;;6.10;80.61;100807.16;6183920;23;20343;-76
2023/03/28 03:08:38;;;;;;;0.00;0.00;;;;;;;6.11;80.84;100811.50;6212558;23;20039;-75
2023/03/28 03:11:04;;;;;;;0.00;0.00;;;;;;;6.10;81.52;100807.16;6210127;23;20034;-75
2023/03/28 03:13:30;;;;;;;0.00;0.00;;;;;;;6.11;80.56;100795.22;6187322;23;20154;-76
2023/03/28 03:15:55;;;;;;;0.00;0.00;;;;;;;6.19;81.35;100790.53;6188062;23;20501;-75
2023/03/28 03:18:21;;;;;;;0.00;0.00;;;;;;;6.24;81.08;100788.00;6208099;23;20022;-75
2023/03/28 03:20:49;;;;;;;0.00;0.00;;;;;;;6.25;81.26;100781.47;6212680;23;20006;-75
2023/03/28 03:23:15;;;;;;;0.00;0.00;;;;;;;6.28;81.09;100773.72;6210482;23;20012;-75
2023/03/28 03:25:42;;;;;;;0.00;0.00;;;;;;;6.34;80.80;100765.69;6188199;23;20016;-74
2023/03/28 03:28:07;;;;;;;0.00;0.00;;;;;;;6.40;81.10;100779.19;6212001;23;20304;-74
2023/03/28 03:30:34;;;;;;;0.00;0.00;;;;;;;6.38;80.31;100778.59;6210961;23;20052;-74
2023/03/28 03:32:59;;;;;;;0.05;0.05;;;;;;;6.32;80.63;100768.63;6238010;23;20430;-75
2023/03/28 03:35:27;;;;;;;0.00;0.00;;;;;;;6.29;80.89;100774.53;6180771;23;20067;-75
2023/03/28 03:37:53;;;;;;;0.10;0.10;;;;;;;6.26;80.73;100764.97;6239121;23;20442;-75
2023/03/28 03:40:19;;;;;;;0.00;0.00;;;;;;;6.27;81.24;100771.22;6183461;23;20103;-75
2023/03/28 03:42:44;;;;;;;0.00;0.00;;;;;;;6.33;81.36;100762.16;6188576;23;20099;-75
2023/03/28 03:45:10;;;;;;;0.00;0.00;;;;;;;6.36;81.07;100758.97;6211087;23;20019;-75
2023/03/28 03:47:35;;;;;;;0.00;0.00;;;;;;;6.33;81.29;100750.47;6212195;23;20024;-75
2023/03/28 03:50:01;;;;;;;0.10;0.10;;;;;;;6.34;81.08;100744.81;6189576;23;20086;-76
2023/03/28 03:52:26;;;;;;;0.00;0.00;;;;;;;6.35;80.42;100746.47;6181875;23;20348;-76
2023/03/28 03:54:52;;;;;;;0.00;0.00;;;;;;;6.37;80.91;100744.34;6188609;23;20004;-76
2023/03/28 03:57:17;;;;;;;0.10;0.10;;;;;;;6.36;81.20;100737.25;6207838;23;20438;-76
2023/03/28 03:59:43;;;;;;;0.00;0.00;;;;;;;6.31;81.81;100722.69;6188541;23;20012;-75
2023/03/28 04:02:08;;;;;;;0.00;0.00;;;;;;;6.36;81.23;100737.25;6188448;23;20004;-75
2023/03/28 04:04:35;;;;;;;0.00;0.00;;;;;;;6.36;81.33;100731.00;6208646;23;20071;-75
2023/03/28 04:07:01;;;;;;;0.00;0.00;;;;;;;6.39;81.94;100736.78;6187812;23;20075;-76
2023/03/28 04:09:27;;;;;;;0.00;0.00;;;;;;;6.42;81.77;100725.44;6209865;23;20122;-74
2023/03/28 04:11:55;;;;;;;0.00;0.00;;;;;;;6.44;82.34;100728.78;6213101;23;20506;-75
2023/03/28 04:14:21;;;;;;;0.00;0.00;;;;;;;6.50;82.05;100720.75;6185013;23;20367;-76
2023/03/28 04:16:50;;;;;;;0.00;0.00;;;;;;;6.58;82.55;100723.16;6187657;23;20028;-77
2023/03/28 04:19:16;;;;;;;0.00;0.00;;;;;;;6.59;81.85;100720.19;6211081;23;20463;-76
2023/03/28 04:21:47;;;;;;;0.00;0.00;;;;;;;6.67;82.17;100710.88;6212502;23;20004;-77
2023/03/28 04:24:19;;;;;;;0.00;0.00;;;;;;;6.74;81.65;100727.91;6215070;23;20430;-75
2023/03/28 04:26:48;;;;;;;0.00;0.00;;;;;;;6.74;81.68;100722.47;6163944;23;20004;-76
2023/03/28 04:29:15;;;;;;;0.00;0.00;;;;;;;6.73;82.56;100720.84;6190600;23;20059;-76
2023/03/28 04:31:48;;;;;;;0.00;0.00;;;;;;;6.74;82.48;100711.59;6237140;23;20059;-76
2023/03/28 04:34:15;;;;;;;0.00;0.00;;;;;;;6.78;82.88;100717.41;6191864;23;20147;-76
2023/03/28 04:36:41;;;;;;;0.00;0.00;;;;;;;6.80;83.28;100718.84;6184133;23;20015;-76
2023/03/28 04:39:07;;;;;;;0.00;0.00;;;;;;;6.80;82.61;100699.81;6242946;23;20000;-75
2023/03/28 04:41:32;;;;;;;0.00;0.00;;;;;;;6.89;82.92;100713.03;6209352;23;20079;-76
2023/03/28 04:43:58;;;;;;;0.00;0.00;;;;;;;6.92;83.34;100720.72;6213873;23;20035;-76
2023/03/28 04:46:24;;;;;;;0.00;0.00;;;;;;;6.97;82.84;100718.97;6189017;23;20107;-76
2023/03/28 04:48:49;;;;;;;0.00;0.00;;;;;;;6.99;82.53;100716.84;6211742;23;20000;-77
2023/03/28 04:51:15;;;;;;;0.00;0.00;;;;;;;7.00;83.20;100714.97;6189363;23;20004;-76
2023/03/28 04:53:40;;;;;;;0.00;0.00;;;;;;;7.02;82.82;100718.25;6211607;23;20008;-77
2023/03/28 04:56:08;;;;;;;0.00;0.00;;;;;;;7.01;83.55;100713.91;6210126;23;20012;-76
2023/03/28 04:58:35;;;;;;;0.00;0.00;;;;;;;6.97;83.75;100708.09;6215469;23;20011;-77
2023/03/28 05:01:02;;;;;;;0.10;0.10;;;;;;;6.97;83.90;100704.56;6209267;23;20334;-77
2023/03/28 05:03:28;;;;;;;0.00;0.00;;;;;;;6.89;83.84;100696.72;6191434;23;20331;-77
2023/03/28 05:05:54;;;;;;;0.00;0.00;;;;;;;6.97;84.38;100707.28;6235720;23;20011;-77
2023/03/28 05:08:22;;;;;;;0.00;0.00;;;;;;;6.95;84.86;100702.06;6189558;23;20000;-75
2023/03/28 05:10:48;;;;;;;0.00;0.00;;;;;;;7.02;85.12;100710.09;6238165;23;20075;-77
2023/03/28 05:13:16;;;;;;;0.00;0.00;;;;;;;7.01;85.33;100704.91;6219655;23;20034;-76
2023/03/28 05:15:42;;;;;;;0.00;0.00;;;;;;;7.05;85.34;100720.50;6214904;23;20004;-76
2023/03/28 05:18:08;;;;;;;0.00;0.00;;;;;;;7.08;86.42;100722.78;6210102;23;20008;-76
2023/03/28 05:20:34;;;;;;;0.00;0.00;;;;;;;7.09;87.46;100716.25;6215450;23;20444;-76
2023/03/28 05:23:00;;;;;;;0.00;0.00;;;;;;;7.05;88.18;100715.06;6210003;23;20012;-75
2023/03/28 05:25:26;;;;;;;0.00;0.00;;;;;;;6.96;88.63;100698.28;6187390;23;20004;-76
2023/03/28 05:27:52;;;;;;;0.10;0.10;;;;;;;7.05;89.53;100712.34;6184776;23;20004;-75
2023/03/28 05:30:18;;;;;;;0.00;0.00;;;;;;;7.08;89.79;100711.91;6213508;23;20422;-76
2023/03/28 05:32:43;;;;;;;0.00;0.00;;;;;;;7.09;90.99;100716.25;6214900;23;19992;-75
2023/03/28 05:35:11;;;;;;;0.00;0.00;;;;;;;7.16;90.74;100713.44;6213567;23;20015;-75
2023/03/28 05:37:37;;;;;;;0.00;0.00;;;;;;;7.15;90.65;100712.63;6242417;23;20000;-76
2023/03/28 05:40:07;;;;;;;0.00;0.00;;;;;;;7.24;91.31;100712.25;6212029;23;20015;-76
2023/03/28 05:42:40;;;;;;;0.00;0.00;;;;;;;7.23;91.91;100702.41;6243905;23;20454;-75
2023/03/28 05:45:07;;;;;;;0.00;0.00;;;;;;;7.31;91.88;100713.78;6213622;23;20010;-75
2023/03/28 05:47:33;;;;;;;0.00;0.00;;;;;;;7.31;92.16;100704.78;6215199;23;19996;-77
2023/03/28 05:49:59;;;;;;;0.00;0.00;;;;;;;7.31;92.02;100700.16;6188473;23;20008;-76
2023/03/28 05:52:25;;;;;;;0.00;0.00;;;;;;;7.42;92.94;100701.25;6212967;23;20705;-76
2023/03/28 05:54:50;;;;;;;0.00;0.00;;;;;;;7.39;93.70;100690.84;6240592;23;20010;-75
2023/03/28 05:57:16;;;;;;;0.00;0.00;;;;;;;7.46;93.67;100691.53;6238630;23;20008;-75
2023/03/28 05:59:42;;;;;;;0.00;0.00;;;;;;;7.54;93.96;100697.69;6189166;23;20079;-75
2023/03/28 06:02:16;;;;;;;0.00;0.00;;;;;;;7.59;93.44;100695.88;6214678;23;20319;-76
2023/03/28 06:04:42;;;;;;;0.10;0.10;;;;;;;7.62;94.43;100689.97;6212463;23;20453;-76
2023/03/28 06:07:08;;;;;;;0.00;0.00;;;;;;;7.75;95.44;100715.25;6163876;23;20004;-76
2023/03/28 06:09:36;;;;;;;0.00;0.00;;;;;;;7.74;95.98;100714.44;6211780;23;20411;-76
2023/03/28 06:12:03;;;;;;;0.00;0.00;;;;;;;7.64;96.34;100684.28;6213888;23;20083;-76
2023/03/28 06:14:30;;;;;;;0.00;0.00;;;;;;;7.74;97.19;100691.81;6210453;23;20103;-77
2023/03/28 06:16:56;;;;;;;0.10;0.10;;;;;;;7.72;97.00;100689.34;6240894;23;20004;-76
2023/03/28 06:19:32;;;;;;;;;;;;;;;;;;;;;
2023/03/28 06:22:01;;;;;;;0.00;0.00;;;;;;;7.56;98.70;100676.50;6217130;23;20071;-77
2023/03/28 06:24:27;;;;;;;0.00;0.00;;;;;;;7.51;100.00;100672.59;6210320;23;20004;-78
2023/03/28 06:26:52;;;;;;;0.08;0.08;;;;;;;7.51;100.00;100678.03;6214239;23;20042;-77
2023/03/28 06:29:18;;;;;;;0.00;0.00;;;;;;;7.56;100.00;100669.13;6189718;23;20082;-78
2023/03/28 06:31:43;;;;;;;0.00;0.00;;;;;;;7.58;100.00;100660.72;6185167;23;20419;-77
2023/03/28 06:34:09;;;;;;;0.00;0.00;;;;;;;7.68;100.00;100682.72;6208124;23;20017;-78
2023/03/28 06:36:55;;;;;;;0.10;0.10;;;;;;;7.71;100.00;100685.00;6208372;23;20775;-80
2023/03/28 06:39:21;;;;;;;0.00;0.00;;;;;;;7.69;100.00;100678.94;6187226;23;20028;-81
2023/03/28 06:41:46;;;;;;;0.00;0.00;;;;;;;7.75;100.00;100677.97;6179096;23;20386;-81
2023/03/28 06:44:12;;;;;;;0.00;0.00;;;;;;;7.69;100.00;100668.06;6156657;23;20039;-82
2023/03/28 06:46:37;;;;;;;0.00;0.00;;;;;;;7.71;100.00;100652.31;6179460;23;20055;-80
2023/03/28 06:49:03;;;;;;;0.00;0.00;;;;;;;7.91;100.00;100676.38;6183772;23;20009;-81
2023/03/28 06:51:28;;;;;;;0.00;0.00;;;;;;;7.94;100.00;100683.25;6210223;23;20058;-79
2023/03/28 06:53:54;;;;;;;0.00;0.00;;;;;;;7.94;100.00;100669.63;6179010;23;20016;-77
2023/03/28 06:56:19;;;;;;;0.00;0.00;;;;;;;8.00;100.00;100679.53;6183741;23;20346;-78
2023/03/28 06:58:45;;;;;;;0.00;0.00;;;;;;;7.98;99.80;100670.81;6184573;23;20009;-78
2023/03/28 07:01:12;;;;;;;0.00;0.00;;;;;;;8.00;99.98;100674.09;6179023;23;20021;-77
2023/03/28 07:03:38;;;;;;;0.00;0.00;;;;;;;7.99;99.53;100672.47;6185110;23;20005;-78
2023/03/28 07:06:12;;;;;;;0.00;0.00;;;;;;;7.99;99.92;100678.72;6180931;23;20064;-79
2023/03/28 07:08:38;;;;;;;0.00;0.00;;;;;;;8.00;100.00;100668.66;6183241;23;20087;-80
2023/03/28 07:11:03;;;;;;;0.00;0.00;;;;;;;8.12;99.93;100671.31;6206164;23;20119;-79
2023/03/28 07:13:29;;;;;;;0.00;0.00;;;;;;;8.15;99.76;100666.22;6210685;23;20084;-83
2023/03/28 07:16:10;;;;;;;0.00;0.00;;;;;;;8.27;99.40;100676.25;6156820;23;20009;-83
2023/03/28 07:18:40;;;;;;;0.00;0.00;;;;;;;8.28;99.49;100658.81;6212855;23;20012;-82
2023/03/28 07:21:16;;;;;;;0.00;0.00;;;;;;;8.32;99.01;100662.72;6204097;23;20004;-74
2023/03/28 07:23:43;;;;;;;0.10;0.10;;;;;;;8.32;98.67;100666.28;6206792;23;20088;-73
2023/03/28 07:26:09;;;;;;;0.00;0.00;;;;;;;8.34;98.71;100663.31;6204454;23;20011;-75
2023/03/28 07:28:35;;;;;;;0.00;0.00;;;;;;;8.27;98.77;100646.28;6206788;23;20383;-74
2023/03/28 07:31:03;;;;;;;0.00;0.00;;;;;;;8.33;98.69;100658.91;6182943;23;20013;-74
2023/03/28 07:33:30;;;;;;;0.00;0.00;;;;;;;8.33;98.82;100659.75;6207931;23;20016;-74
2023/03/28 07:35:56;;;;;;;0.00;0.00;;;;;;;8.39;99.22;100666.91;6213134;23;20015;-74
2023/03/28 07:38:22;;;;;;;0.00;0.00;;;;;;;8.34;98.93;100655.13;6207632;23;20007;-74
2023/03/28 07:40:47;;;;;;;0.00;0.00;;;;;;;8.43;99.32;100661.81;6188001;23;20493;-74
2023/03/28 07:43:13;;;;;;;0.00;0.00;;;;;;;8.33;99.06;100645.28;6206075;23;20039;-74
2023/03/28 07:45:43;;;;;;;0.00;0.00;;;;;;;8.38;98.76;100661.72;6235499;23;20036;-74
2023/03/28 07:48:08;;;;;;;0.00;0.00;;;;;;;8.30;99.32;100645.78;6211455;23;20046;-73
2023/03/28 07:50:35;;;;;;;0.00;0.00;;;;;;;8.26;99.79;100644.63;6185267;23;20092;-73
2023/03/28 07:53:02;;;;;;;0.00;0.00;;;;;;;8.20;100.00;100636.34;6212232;23;20010;-74
2023/03/28 07:55:28;;;;;;;0.00;0.00;;;;;;;8.13;100.00;100637.56;6184342;23;20422;-73
2023/03/28 07:57:54;;;;;;;0.00;0.00;;;;;;;8.04;100.00;100637.16;6187626;23;20444;-74
2023/03/28 08:00:22;;;;;;;0.00;0.00;;;;;;;8.01;100.00;100640.34;6212216;23;20007;-76
2023/03/28 08:02:49;;;;;;;0.00;0.00;;;;;;;7.93;100.00;100632.56;6209549;23;20632;-73
2023/03/28 08:05:15;;;;;;;0.00;0.00;;;;;;;7.86;100.00;100630.00;6212704;23;20087;-74
2023/03/28 08:07:44;;;;;;;0.00;0.00;;;;;;;7.82;100.00;100629.66;6182922;23;20700;-75
2023/03/28 08:10:11;;;;;;;0.00;0.00;;;;;;;7.77;100.00;100636.88;6189759;23;20015;-75
2023/03/28 08:12:37;;;;;;;0.00;0.00;;;;;;;7.77;100.00;100637.72;6182980;23;20015;-74
2023/03/28 08:15:04;;;;;;;0.00;0.00;;;;;;;7.75;100.00;100634.41;6240627;23;20337;-74
2023/03/28 08:17:29;;;;;;;0.03;0.03;;;;;;;7.75;100.00;100639.03;6186570;23;20339;-73
2023/03/28 08:19:55;;;;;;;0.00;0.00;;;;;;;7.70;100.00;100639.78;6184423;23;20008;-75
2023/03/28 08:22:20;;;;;;;0.00;0.00;;;;;;;7.62;100.00;100635.53;6211480;23;20430;-73
2023/03/28 08:24:46;;;;;;;0.00;0.00;;;;;;;7.52;100.00;100635.34;6158612;23;20747;-73
2023/03/28 08:27:12;;;;;;;0.00;0.00;;;;;;;7.41;100.00;100656.03;6187557;23;20086;-74
2023/03/28 08:29:37;;;;;;;0.00;0.00;;;;;;;7.35;100.00;100640.69;6182257;23;20035;-74
2023/03/28 08:32:06;;;;;;;0.00;0.00;;;;;;;7.32;100.00;100646.59;6162530;23;20431;-74
2023/03/28 08:34:31;;;;;;;0.00;0.00;;;;;;;7.15;100.00;100649.22;6164292;23;20024;-74
2023/03/28 08:36:58;;;;;;;0.00;0.00;;;;;;;6.98;100.00;100630.09;6185562;23;20007;-76
2023/03/28 08:39:24;;;;;;;0.00;0.00;;;;;;;6.96;100.00;100653.94;6212494;23;20065;-77
2023/03/28 08:42:18;;;;;;;0.00;0.00;;;;;;;6.96;100.00;100648.50;6208762;23;20087;-75
2023/03/28 08:45:38;;;;;;;0.10;0.10;;;;;;;6.86;100.00;100621.09;6209698;23;20004;-75
2023/03/28 08:48:25;;;;;;;0.00;0.00;;;;;;;7.02;100.00;100647.56;6212467;23;19996;-75
2023/03/28 08:51:21;;;;;;;0.00;0.00;;;;;;;7.03;100.00;100635.63;6211991;23;20004;-76
2023/03/28 08:54:02;;;;;;;0.00;0.00;;;;;;;6.92;100.00;100614.69;6206177;23;20062;-75
2023/03/28 08:56:29;;;;;;;0.00;0.00;;;;;;;6.94;100.00;100612.59;6240650;23;20038;-75
2023/03/28 08:59:14;;;;;;;0.00;0.00;;;;;;;7.06;100.00;100627.00;6237044;23;20004;-74
2023/03/28 09:01:40;;;;;;;0.00;0.00;;;;;;;6.90;100.00;100605.97;6213185;23;20007;-75
2023/03/28 09:04:06;;;;;;;0.00;0.00;;;;;;;6.80;100.00;100603.84;6208246;23;20008;-75
2023/03/28 09:06:48;;;;;;;0.00;0.00;;;;;;;6.73;100.00;100606.69;6164520;23;20181;-74
2023/03/28 09:09:16;;;;;;;0.00;0.00;;;;;;;6.67;100.00;100613.03;6210254;23;20011;-75
2023/03/28 09:12:07;;;;;;;0.00;0.00;;;;;;;6.64;100.00;100619.78;6214014;23;20012;-75
2023/03/28 09:14:54;;;;;;;0.00;0.00;;;;;;;6.63;100.00;100612.69;6209208;23;20047;-75
2023/03/28 09:17:33;;;;;;;0.00;0.00;;;;;;;6.59;100.00;100610.69;6213332;23;20331;-75
2023/03/28 09:20:16;;;;;;;0.00;0.00;;;;;;;6.62;100.00;100607.50;6213009;23;20014;-75
2023/03/28 09:22:54;;;;;;;0.00;0.00;;;;;;;6.69;100.00;100599.22;6211384;23;20360;-75
2023/03/28 09:25:36;;;;;;;0.00;0.00;;;;;;;6.79;100.00;100599.44;6215615;23;20007;-75
2023/03/28 09:28:32;;;;;;;0.00;0.00;;;;;;;6.85;100.00;100600.41;6235555;23;20002;-74
2023/03/28 09:30:58;;;;;;;0.00;0.00;;;;;;;6.71;100.00;100569.94;6212987;23;20406;-74
2023/03/28 09:33:31;;;;;;;0.00;0.00;;;;;;;6.82;100.00;100571.81;6211478;23;20044;-75
2023/03/28 09:35:57;;;;;;;0.00;0.00;;;;;;;6.95;100.00;100595.19;6240621;23;20020;-75
2023/03/28 09:38:33;;;;;;;0.08;0.08;;;;;;;7.02;100.00;100604.06;6210022;23;20070;-75
2023/03/28 09:41:08;;;;;;;0.00;0.00;;;;;;;6.99;100.00;100590.94;6214661;23;20484;-76
2023/03/28 09:43:39;;;;;;;0.00;0.00;;;;;;;7.12;100.00;100595.31;6234945;23;20088;-76
2023/03/28 09:46:08;;;;;;;0.05;0.05;;;;;;;7.21;100.00;100601.19;6214422;23;20007;-76
2023/03/28 09:48:38;;;;;;;0.00;0.00;;;;;;;7.30;100.00;100606.03;6209832;23;20024;-75
2023/03/28 09:51:06;;;;;;;0.00;0.00;;;;;;;7.42;100.00;100613.34;6189308;23;20016;-75
2023/03/28 09:53:50;;;;;;;0.00;0.00;;;;;;;7.33;100.00;100593.84;6211646;23;20008;-75
2023/03/28 09:56:28;;;;;;;0.00;0.00;;;;;;;7.34;100.00;100590.03;6189124;23;20032;-76
2023/03/28 09:58:57;;;;;;;0.00;0.00;;;;;;;7.34;100.00;100584.59;6209888;23;20007;-76
2023/03/28 10:01:44;;;;;;;0.00;0.00;;;;;;;7.26;100.00;100579.56;6188330;23;20008;-76
2023/03/28 10:04:12;;;;;;;0.10;0.10;;;;;;;7.28;100.00;100585.56;6209017;23;20000;-76
2023/03/28 10:06:39;;;;;;;0.00;0.00;;;;;;;7.19;100.00;100576.97;6212837;23;20011;-76
2023/03/28 10:09:27;;;;;;;0.00;0.00;;;;;;;7.15;100.00;100587.50;6209946;23;20427;-76
2023/03/28 10:12:00;;;;;;;0.00;0.00;;;;;;;6.99;100.00;100552.88;6242781;23;20082;-76
2023/03/28 10:14:30;;;;;;;0.00;0.00;;;;;;;7.04;100.00;100574.75;6209473;23;20008;-76
2023/03/28 10:17:10;;;;;;;0.00;0.00;;;;;;;6.91;100.00;100553.25;6212634;23;20691;-76
2023/03/28 10:19:42;;;;;;;0.00;0.00;;;;;;;6.93;100.00;100543.78;6210065;23;20011;-75
2023/03/28 10:22:14;;;;;;;0.00;0.00;;;;;;;6.85;100.00;100537.88;6213948;23;20035;-76
2023/03/28 10:24:40;;;;;;;0.00;0.00;;;;;;;6.84;100.00;100526.19;6208139;23;20016;-76
2023/03/28 10:27:24;;;;;;;0.00;0.00;;;;;;;6.98;100.00;100543.09;6213314;23;20005;-75
2023/03/28 10:30:12;;;;;;;0.00;0.00;;;;;;;7.10;100.00;100535.72;6209633;23;20008;-76
2023/03/28 10:32:41;;;;;;;0.00;0.00;;;;;;;7.22;100.00;100532.16;6209773;22;20004;-76
2023/03/28 10:35:22;;;;;;;0.10;0.10;;;;;;;7.47;100.00;100534.53;6209278;23;20087;-76
2023/03/28 10:37:48;;;;;;;0.00;0.00;;;;;;;7.73;100.00;100527.66;6213362;23;20004;-76
2023/03/28 10:40:19;;;;;;;0.10;0.10;;;;;;;8.18;100.00;100545.88;6208222;23;20004;-76
2023/03/28 10:42:48;;;;;;;0.00;0.00;;;;;;;8.25;100.00;100520.38;6212453;23;20019;-75
2023/03/28 10:45:30;;;;;;;0.00;0.00;;;;;;;8.53;99.28;100525.75;6209041;23;20075;-76
2023/03/28 10:48:04;;;;;;;0.00;0.00;;;;;;;8.55;98.09;100518.13;6211301;23;20008;-76
2023/03/28 10:50:49;;;;;;;0.00;0.00;;;;;;;8.76;96.49;100518.44;6197810;23;20494;-73
2023/03/28 10:53:17;;;;;;;0.00;0.00;;;;;;;9.01;94.16;100514.38;6203135;23;20023;-76
2023/03/28 10:56:13;;;;;;;0.00;0.00;;;;;;;9.10;92.02;100518.34;6207355;23;20052;-77
2023/03/28 10:58:45;;;;;;;0.00;0.00;;;;;;;9.03;89.25;100523.97;6212854;23;20000;-76
2023/03/28 11:01:16;;;;;;;0.10;0.10;;;;;;;9.22;89.28;100532.66;6208544;23;20016;-76
2023/03/28 11:04:16;;;;;;;0.00;0.00;;;;;;;9.18;87.05;100504.22;6212071;23;20381;-77
2023/03/28 11:06:53;;;;;;;0.00;0.00;;;;;;;9.31;86.31;100513.13;6213744;23;20011;-76
2023/03/28 11:09:25;;;;;;;0.10;0.10;;;;;;;9.23;85.61;100508.94;6208965;23;20007;-77
2023/03/28 11:11:59;;;;;;;0.00;0.00;;;;;;;9.11;84.04;100486.41;6213261;23;20004;-76
2023/03/28 11:14:43;;;;;;;;;;;;;;;8.97;83.35;100518.72;6208515;23;20016;-75
2023/03/28 11:17:18;;;;;;;0.00;0.00;;;;;;;8.74;86.46;100505.03;6212119;23;19907;-76
2023/03/28 11:20:16;;;;;;;0.00;0.00;;;;;;;8.49;85.98;100488.34;6214126;23;20004;-76
2023/03/28 11:23:00;;;;;;;0.00;0.00;;;;;;;8.15;86.63;100502.78;6208137;23;20848;-76
2023/03/28 11:25:50;;;;;;;0.00;0.00;;;;;;;7.82;85.96;100493.53;6212312;23;19999;-76
2023/03/28 11:28:47;;;;;;;0.00;0.00;;;;;;;7.62;87.94;100499.47;6212393;23;20063;-77
2023/03/28 11:31:39;;;;;;;0.00;0.00;;;;;;;7.39;89.35;100489.50;6211416;23;20004;-77
2023/03/28 11:34:26;;;;;;;0.00;0.00;;;;;;;7.31;91.17;100492.59;6203259;23;20021;-75
2023/03/28 11:37:23;;;;;;;0.00;0.00;;;;;;;7.11;89.85;100482.13;6208496;23;20001;-78
2023/03/28 11:40:12;;;;;;;0.00;0.00;;;;;;;6.97;91.70;100470.72;6208226;23;20004;-75
2023/03/28 11:42:56;;;;;;;0.00;0.00;;;;;;;6.82;92.79;100458.47;6202888;23;20331;-74
2023/03/28 11:45:33;;;;;;;0.00;0.00;;;;;;;6.66;92.13;100461.94;6210187;23;20007;-75
2023/03/28 11:48:19;;;;;;;0.00;0.00;;;;;;;6.50;93.18;100457.22;6208687;23;19997;-74
2023/03/28 11:51:02;;;;;;;0.00;0.00;;;;;;;6.43;93.06;100450.03;6206721;23;20004;-75
2023/03/28 11:53:55;;;;;;;0.00;0.00;;;;;;;6.32;94.06;100458.19;6213769;23;20296;-75
2023/03/28 11:57:12;;;;;;;;;;;;;;;;;;;;;